createdAt,value
2018-08-18T00:00:20.402Z,14.70
2018-08-18T00:02:49.184Z,14.70
2018-08-18T00:05:18.617Z,14.60
2018-08-18T00:07:47.555Z,14.60
2018-08-18T00:10:19.288Z,14.50
2018-08-18T00:12:48.129Z,14.50
2018-08-18T00:15:16.940Z,14.40
2018-08-18T00:17:45.757Z,14.30
2018-08-18T00:20:18.860Z,14.30
2018-08-18T00:22:47.713Z,14.30
2018-08-18T00:25:16.566Z,14.10
2018-08-18T00:27:45.373Z,14.10
2018-08-18T00:30:19.474Z,14.10
2018-08-18T00:32:48.323Z,14.10
2018-08-18T00:35:17.176Z,14.10
2018-08-18T00:37:45.953Z,14.00
2018-08-18T00:40:14.788Z,14.00
2018-08-18T00:42:43.618Z,13.90
2018-08-18T00:45:13.920Z,14.00
2018-08-18T00:47:43.318Z,14.00
2018-08-18T00:50:18.502Z,13.90
2018-08-18T00:52:48.324Z,14.00
2018-08-18T00:55:18.458Z,13.90
2018-08-18T00:57:47.785Z,13.80
2018-08-18T01:00:17.169Z,13.70
2018-08-18T01:02:46.894Z,13.70
2018-08-18T01:05:17.540Z,13.70
2018-08-18T01:07:48.262Z,13.80
2018-08-18T01:10:20.709Z,13.80
2018-08-18T01:12:51.136Z,13.80
2018-08-18T01:15:26.236Z,13.70
2018-08-18T01:17:58.726Z,13.60
2018-08-18T01:20:28.405Z,13.70
2018-08-18T01:23:02.600Z,13.70
2018-08-18T01:25:32.753Z,13.80
2018-08-18T01:28:01.907Z,13.70
2018-08-18T01:30:34.514Z,13.70
2018-08-18T01:33:05.433Z,13.60
2018-08-18T01:35:36.086Z,13.50
2018-08-18T01:38:06.297Z,13.50
2018-08-18T01:40:36.473Z,13.50
2018-08-18T01:43:06.426Z,13.50
2018-08-18T01:45:36.327Z,13.50
2018-08-18T01:48:05.828Z,13.40
2018-08-18T01:50:35.568Z,13.40
2018-08-18T01:53:13.477Z,13.40
2018-08-18T01:55:48.538Z,13.50
2018-08-18T01:58:18.635Z,13.50
2018-08-18T02:00:48.645Z,13.50
2018-08-18T02:03:19.682Z,13.40
2018-08-18T02:08:49.524Z,13.40
2018-08-18T02:11:21.286Z,13.40
2018-08-18T02:13:56.905Z,13.30
2018-08-18T02:19:30.965Z,13.30
2018-08-18T02:22:00.696Z,13.20
2018-08-18T02:24:36.498Z,13.30
2018-08-18T02:27:07.062Z,13.20
2018-08-18T02:29:37.504Z,13.10
2018-08-18T02:32:27.323Z,13.20
2018-08-18T02:34:58.175Z,13.20
2018-08-18T02:40:19.488Z,13.20
2018-08-18T02:42:52.468Z,13.20
2018-08-18T02:54:24.332Z,13.10
2018-08-18T02:56:56.234Z,13.10
2018-08-18T02:59:27.272Z,13.10
2018-08-18T03:01:58.254Z,13.00
2018-08-18T03:07:12.972Z,13.10
2018-08-18T03:09:44.289Z,13.10
2018-08-18T03:12:15.263Z,13.00
2018-08-18T03:14:46.182Z,12.90
2018-08-18T03:17:17.274Z,12.70
2018-08-18T03:19:48.193Z,12.50
2018-08-18T03:22:19.538Z,12.50
2018-08-18T03:24:50.485Z,12.50
2018-08-18T03:27:21.536Z,12.60
2018-08-18T03:29:53.397Z,12.70
2018-08-18T03:32:24.755Z,12.70
2018-08-18T03:34:55.806Z,12.70
2018-08-18T03:37:33.205Z,12.70
2018-08-18T03:40:04.191Z,12.70
2018-08-18T03:42:43.514Z,12.70
2018-08-18T03:45:14.458Z,12.80
2018-08-18T03:47:45.576Z,12.70
2018-08-18T03:50:16.549Z,12.70
2018-08-18T03:52:47.562Z,12.70
2018-08-18T03:55:21.953Z,12.70
2018-08-18T03:57:59.565Z,12.60
2018-08-18T04:00:30.472Z,12.50
2018-08-18T04:03:01.738Z,12.40
2018-08-18T04:05:32.708Z,12.40
2018-08-18T04:08:03.933Z,12.30
2018-08-18T04:10:34.893Z,12.20
2018-08-18T04:13:06.077Z,12.10
2018-08-18T04:15:37.038Z,12.10
2018-08-18T04:18:12.582Z,12.10
2018-08-18T04:20:43.475Z,12.00
2018-08-18T04:23:14.593Z,12.10
2018-08-18T04:25:45.580Z,12.10
2018-08-18T04:28:16.922Z,12.20
2018-08-18T04:31:08.593Z,12.20
2018-08-18T04:33:39.586Z,12.10
2018-08-18T04:36:10.684Z,12.10
2018-08-18T04:38:41.923Z,12.30
2018-08-18T04:41:13.214Z,12.40
2018-08-18T04:43:44.695Z,12.50
2018-08-18T04:46:21.559Z,12.40
2018-08-18T04:48:53.407Z,12.60
2018-08-18T04:51:25.508Z,12.70
2018-08-18T04:57:14.353Z,12.90
2018-08-18T04:59:43.132Z,13.00
2018-08-18T05:02:11.999Z,13.10
2018-08-18T05:04:40.793Z,13.10
2018-08-18T05:07:09.637Z,13.30
2018-08-18T05:09:38.557Z,13.40
2018-08-18T05:12:07.564Z,13.60
2018-08-18T05:14:38.769Z,13.70
2018-08-18T05:17:07.746Z,13.90
2018-08-18T05:19:36.612Z,14.20
2018-08-18T05:22:05.518Z,14.90
2018-08-18T05:24:34.379Z,15.80
2018-08-18T05:27:34.127Z,16.90
2018-08-18T05:30:03.632Z,18.00
2018-08-18T05:32:32.445Z,19.20
2018-08-18T05:35:04.553Z,20.00
2018-08-18T05:37:33.649Z,20.40
2018-08-18T05:40:03.311Z,20.80
2018-08-18T05:42:32.287Z,21.10
2018-08-18T05:45:08.544Z,21.30
2018-08-18T05:47:37.456Z,21.30
2018-08-18T05:50:06.420Z,21.30
2018-08-18T05:52:35.277Z,21.00
2018-08-18T05:55:04.133Z,20.80
2018-08-18T05:57:32.980Z,21.30
2018-08-18T06:00:01.906Z,21.60
2018-08-18T06:02:30.764Z,21.60
2018-08-18T06:04:59.631Z,21.60
2018-08-18T06:07:28.822Z,21.50
2018-08-18T06:09:57.692Z,21.60
2018-08-18T06:12:26.519Z,21.70
2018-08-18T06:14:55.420Z,21.50
2018-08-18T06:17:29.299Z,21.60
2018-08-18T06:19:58.173Z,21.50
2018-08-18T06:22:27.129Z,21.40
2018-08-18T06:24:55.973Z,21.50
2018-08-18T06:27:28.690Z,22.00
2018-08-18T06:29:58.566Z,22.10
2018-08-18T06:32:27.682Z,22.10
2018-08-18T06:34:56.649Z,22.40
2018-08-18T06:37:25.429Z,21.50
2018-08-18T06:39:58.672Z,22.00
2018-08-18T06:42:44.642Z,21.70
2018-08-18T06:45:16.805Z,22.10
2018-08-18T06:47:45.816Z,21.80
2018-08-18T06:50:16.657Z,22.40
2018-08-18T06:52:46.351Z,22.40
2018-08-18T06:55:21.520Z,22.40
2018-08-18T06:57:55.253Z,23.00
2018-08-18T07:00:25.456Z,23.60
2018-08-18T07:02:54.248Z,23.40
2018-08-18T07:05:23.107Z,23.80
2018-08-18T07:07:51.900Z,24.10
2018-08-18T07:10:36.708Z,23.50
2018-08-18T07:13:07.347Z,23.60
2018-08-18T07:15:37.462Z,23.60
2018-08-18T07:18:09.150Z,23.50
2018-08-18T07:20:38.025Z,23.90
2018-08-18T07:23:07.349Z,24.10
2018-08-18T07:26:00.487Z,24.10
2018-08-18T07:28:29.339Z,23.80
2018-08-18T07:30:58.268Z,23.80
2018-08-18T07:33:27.143Z,23.90
2018-08-18T07:35:56.037Z,23.60
2018-08-18T07:38:24.894Z,23.40
2018-08-18T07:40:54.769Z,24.10
2018-08-18T07:43:26.017Z,24.10
2018-08-18T07:45:56.175Z,24.40
2018-08-18T07:48:24.961Z,24.90
2018-08-18T07:50:53.837Z,24.40
2018-08-18T07:53:22.720Z,24.30
2018-08-18T07:55:51.547Z,24.70
2018-08-18T07:58:21.941Z,24.60
2018-08-18T08:00:50.738Z,24.90
2018-08-18T08:03:20.350Z,25.00
2018-08-18T08:05:49.237Z,25.10
2018-08-18T08:08:18.049Z,25.10
2018-08-18T08:10:46.829Z,25.90
2018-08-18T08:13:16.714Z,26.20
2018-08-18T08:15:46.499Z,26.20
2018-08-18T08:18:16.135Z,26.10
2018-08-18T08:20:45.969Z,26.40
2018-08-18T08:23:15.625Z,26.30
2018-08-18T08:25:45.576Z,26.40
2018-08-18T08:28:14.633Z,27.00
2018-08-18T08:30:44.784Z,27.10
2018-08-18T08:33:23.412Z,27.40
2018-08-18T08:35:53.026Z,26.90
2018-08-18T08:38:22.884Z,27.30
2018-08-18T08:40:52.095Z,26.70
2018-08-18T08:43:32.072Z,26.40
2018-08-18T08:46:00.837Z,26.20
2018-08-18T08:48:30.013Z,26.90
2018-08-18T08:50:58.837Z,27.00
2018-08-18T08:53:27.661Z,26.60
2018-08-18T08:55:56.499Z,26.40
2018-08-18T08:58:25.318Z,25.90
2018-08-18T09:00:54.195Z,25.30
2018-08-18T09:03:22.956Z,25.00
2018-08-18T09:05:51.832Z,25.50
2018-08-18T09:08:20.643Z,25.50
2018-08-18T09:10:50.100Z,25.00
2018-08-18T09:13:20.563Z,25.50
2018-08-18T09:15:49.369Z,25.90
2018-08-18T09:18:18.853Z,26.00
2018-08-18T09:20:47.710Z,26.20
2018-08-18T09:23:16.490Z,26.60
2018-08-18T09:25:45.289Z,26.20
2018-08-18T09:28:14.147Z,26.00
2018-08-18T09:30:42.939Z,26.10
2018-08-18T09:33:11.805Z,26.70
2018-08-18T09:35:53.517Z,26.80
2018-08-18T09:38:22.327Z,26.90
2018-08-18T09:40:57.080Z,27.20
2018-08-18T09:43:26.270Z,27.00
2018-08-18T09:45:56.415Z,26.60
2018-08-18T09:48:25.990Z,26.50
2018-08-18T09:50:56.101Z,27.00
2018-08-18T09:53:25.056Z,27.70
2018-08-18T09:55:53.960Z,27.60
2018-08-18T09:58:22.990Z,27.40
2018-08-18T10:00:51.826Z,27.90
2018-08-18T10:03:20.656Z,28.20
2018-08-18T10:05:49.465Z,28.80
2018-08-18T10:08:18.305Z,28.90
2018-08-18T10:10:47.157Z,28.50
2018-08-18T10:13:15.996Z,28.80
2018-08-18T10:15:45.427Z,29.00
2018-08-18T10:18:15.048Z,28.30
2018-08-18T10:20:51.823Z,28.30
2018-08-18T10:23:21.009Z,27.60
2018-08-18T10:25:51.132Z,27.70
2018-08-18T10:28:20.677Z,28.00
2018-08-18T10:30:50.516Z,28.40
2018-08-18T10:33:36.949Z,28.70
2018-08-18T10:36:05.851Z,28.80
2018-08-18T10:38:34.716Z,29.00
2018-08-18T10:41:04.365Z,29.00
2018-08-18T10:43:33.241Z,28.80
2018-08-18T10:46:02.069Z,28.70
2018-08-18T10:48:30.875Z,29.20
2018-08-18T10:52:11.067Z,29.20
2018-08-18T10:54:39.858Z,29.20
2018-08-18T10:57:18.518Z,28.90
2018-08-18T10:59:50.960Z,28.60
2018-08-18T11:02:38.229Z,28.90
2018-08-18T11:05:07.511Z,29.00
2018-08-18T11:07:36.299Z,29.30
2018-08-18T11:10:05.889Z,29.30
2018-08-18T11:12:42.168Z,29.20
2018-08-18T11:15:12.148Z,28.90
2018-08-18T11:17:41.648Z,28.90
2018-08-18T11:20:16.001Z,28.50
2018-08-18T11:22:54.850Z,28.10
2018-08-18T11:25:28.533Z,28.40
2018-08-18T11:27:59.868Z,28.10
2018-08-18T11:30:29.003Z,28.20
2018-08-18T11:33:01.757Z,28.20
2018-08-18T11:35:31.337Z,28.30
2018-08-18T11:38:05.869Z,28.50
2018-08-18T11:40:35.696Z,28.40
2018-08-18T11:43:06.771Z,28.10
2018-08-18T11:45:36.798Z,28.30
2018-08-18T11:48:11.179Z,28.30
2018-08-18T11:50:40.694Z,28.40
2018-08-18T11:53:09.808Z,28.30
2018-08-18T11:55:39.056Z,28.60
2018-08-18T11:58:09.614Z,29.10
2018-08-18T12:00:48.289Z,29.10
2018-08-18T12:03:21.169Z,28.60
2018-08-18T12:05:52.075Z,28.30
2018-08-18T12:08:22.734Z,28.20
2018-08-18T12:10:53.229Z,28.00
2018-08-18T12:13:30.169Z,28.00
2018-08-18T12:16:02.245Z,27.90
2018-08-18T12:18:32.256Z,28.90
2018-08-18T12:21:02.807Z,29.20
2018-08-18T12:23:32.394Z,29.30
2018-08-18T12:26:13.200Z,29.40
2018-08-18T12:28:46.184Z,28.70
2018-08-18T12:31:18.960Z,28.80
2018-08-18T12:33:48.886Z,28.60
2018-08-18T12:36:27.291Z,28.80
2018-08-18T12:38:57.468Z,29.00
2018-08-18T12:41:26.582Z,28.60
2018-08-18T12:43:59.518Z,28.30
2018-08-18T12:46:36.651Z,27.80
2018-08-18T12:49:09.097Z,27.80
2018-08-18T12:51:38.083Z,28.10
2018-08-18T12:54:08.064Z,27.70
2018-08-18T12:56:38.004Z,27.40
2018-08-18T12:59:08.846Z,27.40
2018-08-18T13:01:50.854Z,27.30
2018-08-18T13:04:21.705Z,27.30
2018-08-18T13:07:11.400Z,27.60
2018-08-18T13:09:56.209Z,27.60
2018-08-18T13:12:25.273Z,27.70
2018-08-18T13:14:55.160Z,27.70
2018-08-18T13:17:25.114Z,27.70
2018-08-18T13:19:54.225Z,27.60
2018-08-18T13:22:23.280Z,27.70
2018-08-18T13:24:55.086Z,27.50
2018-08-18T13:27:24.105Z,27.40
2018-08-18T13:29:54.792Z,27.50
2018-08-18T13:32:25.349Z,27.50
2018-08-18T13:34:55.925Z,27.10
2018-08-18T13:37:25.209Z,27.30
2018-08-18T13:39:54.254Z,27.00
2018-08-18T13:42:25.051Z,27.20
2018-08-18T13:44:54.642Z,27.40
2018-08-18T13:47:24.643Z,27.60
2018-08-18T13:49:59.629Z,27.30
2018-08-18T13:52:35.330Z,27.10
2018-08-18T13:55:05.771Z,26.90
2018-08-18T13:57:36.289Z,27.10
2018-08-18T14:00:09.896Z,26.90
2018-08-18T14:02:39.029Z,26.70
2018-08-18T14:05:17.669Z,26.70
2018-08-18T14:07:53.593Z,26.00
2018-08-18T14:10:24.158Z,25.70
2018-08-18T14:12:56.095Z,25.50
2018-08-18T14:15:25.210Z,25.60
2018-08-18T14:18:04.513Z,25.90
2018-08-18T14:20:47.118Z,25.50
2018-08-18T14:23:18.211Z,25.70
2018-08-18T14:25:47.442Z,25.70
2018-08-18T14:28:16.732Z,25.60
2018-08-18T14:30:45.781Z,25.70
2018-08-18T14:33:14.829Z,25.90
2018-08-18T14:35:44.707Z,25.70
2018-08-18T14:38:13.763Z,25.80
2018-08-18T14:40:42.795Z,25.90
2018-08-18T14:43:11.713Z,25.90
2018-08-18T14:45:52.532Z,25.80
2018-08-18T14:48:21.370Z,25.90
2018-08-18T14:50:52.535Z,25.90
2018-08-18T14:53:24.177Z,25.90
2018-08-18T14:55:55.381Z,26.00
2018-08-18T14:58:38.248Z,25.80
2018-08-18T15:01:17.066Z,25.80
2018-08-18T15:03:57.457Z,25.80
2018-08-18T15:06:42.163Z,25.80
2018-08-18T15:09:16.709Z,25.60
2018-08-18T15:11:45.793Z,25.60
2018-08-18T15:14:14.759Z,25.60
2018-08-18T15:16:54.577Z,25.50
2018-08-18T15:19:27.879Z,25.40
2018-08-18T15:21:58.327Z,25.40
2018-08-18T15:24:27.481Z,25.50
2018-08-18T15:26:56.505Z,25.40
2018-08-18T15:29:25.588Z,25.60
2018-08-18T15:31:58.359Z,25.70
2018-08-18T15:34:28.422Z,25.60
2018-08-18T15:36:57.440Z,25.20
2018-08-18T15:39:29.484Z,25.30
2018-08-18T15:42:04.070Z,25.40
2018-08-18T15:44:34.569Z,25.40
2018-08-18T15:47:03.508Z,25.30
2018-08-18T15:49:32.628Z,25.30
2018-08-18T15:52:02.397Z,25.40
2018-08-18T15:54:32.010Z,25.30
2018-08-18T15:57:03.744Z,25.40
2018-08-18T15:59:45.885Z,25.40
2018-08-18T16:02:15.886Z,25.50
2018-08-18T16:04:45.692Z,25.30
2018-08-18T16:07:14.686Z,25.30
2018-08-18T16:09:43.679Z,25.40
2018-08-18T16:12:12.744Z,25.50
2018-08-18T16:14:41.898Z,25.40
2018-08-18T16:17:11.142Z,25.40
2018-08-18T16:19:40.292Z,25.20
2018-08-18T16:22:09.389Z,25.30
2018-08-18T16:24:41.922Z,25.40
2018-08-18T16:27:11.007Z,25.30
2018-08-18T16:29:40.372Z,25.40
2018-08-18T16:32:23.533Z,25.20
2018-08-18T16:35:14.033Z,25.40
2018-08-18T16:37:46.056Z,25.50
2018-08-18T16:40:15.377Z,25.40
2018-08-18T16:42:44.462Z,25.40
2018-08-18T16:45:13.387Z,25.40
2018-08-18T16:47:52.623Z,25.20
2018-08-18T16:50:22.472Z,25.40
2018-08-18T16:52:51.470Z,25.30
2018-08-18T16:55:21.921Z,25.20
2018-08-18T16:57:50.841Z,25.20
2018-08-18T17:00:19.867Z,25.10
2018-08-18T17:02:48.896Z,24.80
2018-08-18T17:08:33.787Z,24.60
2018-08-18T17:11:03.169Z,24.70
2018-08-18T17:13:36.486Z,24.70
2018-08-18T17:16:06.395Z,24.70
2018-08-18T17:18:35.337Z,24.60
2018-08-18T17:21:09.056Z,24.50
2018-08-18T17:23:39.526Z,24.30
2018-08-18T17:26:09.004Z,24.30
2018-08-18T17:28:37.909Z,24.30
2018-08-18T17:31:06.861Z,24.20
2018-08-18T17:33:35.769Z,24.20
2018-08-18T17:36:05.010Z,24.10
2018-08-18T17:38:33.896Z,24.00
2018-08-18T17:41:02.994Z,23.90
2018-08-18T17:43:31.958Z,23.90
2018-08-18T17:46:04.760Z,23.80
2018-08-18T17:48:40.849Z,23.70
2018-08-18T17:51:10.130Z,23.70
2018-08-18T17:53:43.430Z,23.70
2018-08-18T17:56:12.697Z,23.70
2018-08-18T17:58:41.716Z,23.70
2018-08-18T18:01:10.762Z,23.70
2018-08-18T18:03:39.824Z,23.60
2018-08-18T18:06:08.922Z,23.70
2018-08-18T18:08:38.309Z,23.70
2018-08-18T18:11:07.583Z,23.70
2018-08-18T18:13:36.652Z,23.70
2018-08-18T18:16:16.182Z,23.50
2018-08-18T18:18:47.132Z,23.50
2018-08-18T18:21:16.398Z,23.40
2018-08-18T18:23:45.290Z,23.40
2018-08-18T18:26:14.234Z,23.30
2018-08-18T18:28:43.217Z,23.30
2018-08-18T18:31:12.464Z,23.10
2018-08-18T18:33:49.637Z,23.10
2018-08-18T18:36:19.420Z,23.00
2018-08-18T18:38:56.541Z,23.10
2018-08-18T18:41:26.049Z,23.10
2018-08-18T18:43:59.932Z,23.00
2018-08-18T18:46:29.007Z,23.00
2018-08-18T18:48:58.149Z,23.00
2018-08-18T18:51:27.499Z,22.80
2018-08-18T18:53:58.160Z,22.80
2018-08-18T18:56:28.648Z,22.80
2018-08-18T18:58:57.689Z,22.80
2018-08-18T19:01:26.740Z,22.60
2018-08-18T19:03:55.837Z,22.50
2018-08-18T19:06:27.836Z,22.40
2018-08-18T19:08:59.636Z,22.30
2018-08-18T19:11:28.798Z,22.20
2018-08-18T19:13:57.874Z,22.10
2018-08-18T19:16:26.786Z,22.00
2018-08-18T19:18:55.722Z,21.90
2018-08-18T19:21:30.098Z,21.80
2018-08-18T19:23:59.027Z,21.60
2018-08-18T19:26:44.916Z,21.40
2018-08-18T19:29:13.735Z,21.30
2018-08-18T19:31:42.712Z,21.30
2018-08-18T19:34:12.510Z,21.20
2018-08-18T19:36:54.321Z,21.10
2018-08-18T19:39:25.712Z,20.90
2018-08-18T19:41:57.536Z,20.60
2018-08-18T19:44:26.409Z,20.50
2018-08-18T19:46:55.322Z,20.50
2018-08-18T19:49:37.480Z,20.50
2018-08-18T19:52:14.377Z,20.40
2018-08-18T19:54:45.680Z,20.30
2018-08-18T19:57:22.858Z,20.10
2018-08-18T19:59:52.250Z,20.00
2018-08-18T20:02:21.174Z,20.00
2018-08-18T20:04:50.686Z,19.80
2018-08-18T20:07:20.036Z,19.60
2018-08-18T20:09:48.965Z,19.60
2018-08-18T20:12:17.774Z,19.60
2018-08-18T20:14:46.607Z,19.60
2018-08-18T20:17:15.416Z,19.60
2018-08-18T20:19:44.222Z,19.60
2018-08-18T20:22:16.685Z,19.70
2018-08-18T20:24:45.597Z,19.70
2018-08-18T20:27:14.644Z,19.60
2018-08-18T20:29:43.519Z,19.50
2018-08-18T20:32:12.340Z,19.40
2018-08-18T20:34:41.188Z,19.50
2018-08-18T20:37:09.994Z,19.50
2018-08-18T20:39:38.805Z,19.50
2018-08-18T20:42:07.658Z,19.40
2018-08-18T20:44:36.452Z,19.50
2018-08-18T20:47:06.125Z,19.50
2018-08-18T20:49:34.954Z,19.50
2018-08-18T20:52:03.828Z,19.60
2018-08-18T20:54:33.208Z,19.60
2018-08-18T20:57:02.066Z,19.70
2018-08-18T20:59:30.837Z,19.70
2018-08-18T21:01:59.629Z,19.70
2018-08-18T21:04:28.469Z,19.80
2018-08-18T21:06:57.498Z,19.80
2018-08-18T21:09:28.997Z,19.80
2018-08-18T21:11:57.824Z,19.90
2018-08-18T21:14:29.877Z,19.90
2018-08-18T21:16:58.837Z,20.00
2018-08-18T21:19:28.116Z,20.00
2018-08-18T21:21:57.189Z,20.10
2018-08-18T21:24:26.002Z,20.10
2018-08-18T21:26:54.995Z,20.10
2018-08-18T21:29:24.787Z,20.00
2018-08-18T21:31:53.799Z,19.80
2018-08-18T21:34:22.609Z,19.50
2018-08-18T21:37:01.786Z,19.30
2018-08-18T21:39:31.004Z,19.10
2018-08-18T21:41:59.816Z,18.90
2018-08-18T21:44:28.920Z,18.90
2018-08-18T21:46:58.046Z,18.80
2018-08-18T21:49:27.323Z,18.80
2018-08-18T21:51:57.906Z,18.60
2018-08-18T21:54:28.710Z,18.60
2018-08-18T21:56:57.668Z,18.50
2018-08-18T21:59:27.478Z,18.40
2018-08-18T22:01:58.121Z,18.40
2018-08-18T22:04:27.013Z,18.30
2018-08-18T22:06:55.817Z,18.30
2018-08-18T22:09:29.096Z,18.30
2018-08-18T22:11:57.974Z,18.20
2018-08-18T22:14:26.783Z,18.10
2018-08-18T22:16:56.276Z,18.10
2018-08-18T22:19:25.553Z,18.00
2018-08-18T22:21:54.519Z,17.90
2018-08-18T22:24:23.414Z,17.80
2018-08-18T22:26:52.328Z,18.00
2018-08-18T22:29:25.733Z,17.90
2018-08-18T22:31:54.756Z,18.00
2018-08-18T22:34:23.619Z,17.90
2018-08-18T22:36:59.624Z,17.80
2018-08-18T22:39:28.422Z,17.80
2018-08-18T22:41:57.258Z,17.70
2018-08-18T22:44:26.119Z,17.80
2018-08-18T22:46:54.965Z,17.80
2018-08-18T22:49:24.240Z,17.70
2018-08-18T22:51:53.061Z,17.80
2018-08-18T22:54:21.820Z,17.80
2018-08-18T22:56:55.906Z,17.80
2018-08-18T22:59:24.690Z,17.80
2018-08-18T23:01:53.514Z,17.80
2018-08-18T23:04:30.454Z,17.90
2018-08-18T23:07:00.373Z,18.00
2018-08-18T23:09:30.081Z,18.00
2018-08-18T23:12:02.269Z,18.00
2018-08-18T23:14:37.290Z,18.00
2018-08-18T23:17:07.519Z,18.00
2018-08-18T23:19:44.049Z,18.10
2018-08-18T23:22:27.114Z,18.30
2018-08-18T23:25:03.574Z,18.40
2018-08-18T23:27:32.399Z,18.40
2018-08-18T23:30:01.176Z,18.40
2018-08-18T23:32:29.967Z,18.50
2018-08-18T23:34:58.770Z,18.60
2018-08-18T23:37:34.642Z,18.70
2018-08-18T23:40:11.159Z,18.70
2018-08-18T23:42:39.978Z,18.70
2018-08-18T23:45:08.784Z,18.70
2018-08-18T23:47:37.575Z,18.70
2018-08-18T23:50:06.548Z,18.80
2018-08-18T23:52:48.236Z,18.80
2018-08-18T23:55:17.049Z,18.80
2018-08-18T23:57:45.887Z,18.90
